Time;durP1;ratioP1;P1;durP2;ratioP2;P2;SDS_P1;SDS_P2;PMS_P1;PMS_P2;Temp;Humidity;BMP_temperature;BMP_pressure;BME280_temperature;BME280_humidity;BME280_pressure;Samples;Min_cycle;Max_cycle;Signal;HPM_P1;HPM_P2
2022/01/18 00:00:43;;;;;;;;;;;;;;;;;;5015644;28;19936;-58
2022/01/18 00:03:08;;;;;;;;;;;;;;;;;;5024499;28;19921;-58
2022/01/18 00:05:34;;;;;;;;;;;;;;;;;;5017031;28;20067;-57
2022/01/18 00:08:00;;;;;;;;;;;;;;;;;;5017355;28;19917;-57
2022/01/18 00:10:28;;;;;;;;;;;;;;;;;;5014200;28;19925;-59
2022/01/18 00:13:07;;;;;;;;;;;;;;;;;;5016915;28;20059;-58
2022/01/18 00:15:42;;;;;;;;;;;;;;;;;;5016144;28;19945;-59
2022/01/18 00:18:13;;;;;;;;;;;;;;;;;;5014073;28;19928;-59
2022/01/18 00:23:22;;;;;;;;;;;;;;;;;;5015421;28;20024;-58
2022/01/18 00:25:51;;;;;;;;;;;;;;;;;;5017634;28;19928;-59
2022/01/18 00:28:17;;;;;;;;;;;;;;;;;;5016704;28;19925;-58
2022/01/18 00:36:00;;;;;;;;;;;;;;;;;;5019507;28;20246;-58
2022/01/18 00:41:14;;;;;;;;;;;;;;;;;;5018265;28;19921;-58
2022/01/18 00:43:39;;;;;;;;;;;;;;;;;;5019091;28;20086;-58
2022/01/18 00:46:04;;;;;;;;;;;;;;;;;;5021698;28;19929;-58
2022/01/18 00:48:33;;;;;;;;;;;;;;;;;;5019589;28;20360;-58
2022/01/18 00:50:58;;;;;;;;;;;;;;;;;;5019342;28;19918;-58
2022/01/18 00:53:25;;;;;;;;;;;;;;;;;;5018588;28;19921;-58
2022/01/18 00:56:10;;;;;;;;;;;;;;;;;;5019152;28;19932;-58
2022/01/18 00:58:36;;;;;;;;;;;;;;;;;;5019058;28;20404;-59
2022/01/18 01:01:01;;;;;;;;;;;;;;;;;;5019595;28;20055;-59
2022/01/18 01:03:26;;;;;;;;;;;;;;;;;;5019124;28;20024;-57
2022/01/18 01:05:52;;;;;;;;;;;;;;;;;;5020312;28;20914;-59
2022/01/18 01:08:17;;;;;;;;;;;;;;;;;;5019259;28;20271;-59
2022/01/18 01:10:43;;;;;;;;;;;;;;;;;;5021628;28;20544;-59
2022/01/18 01:13:08;;;;;;;;;;;;;;;;;;5020406;28;19928;-59
2022/01/18 01:15:42;;;;;;;;;;;;;;;;;;5022310;28;21709;-60
2022/01/18 01:18:31;;;;;;;;;;;;;;;;;;5021739;28;19956;-59
2022/01/18 01:34:56;;;;;;;;;;;;;;;;;;5018583;28;20348;-58
2022/01/18 01:45:05;;;;;;;;;;;;;;;;;;5020025;28;19921;-58
2022/01/18 01:47:36;;;;;;;;;;;;;;;;;;5018763;28;19992;-56
2022/01/18 01:50:01;;;;;;;;;;;;;;;;;;5018865;28;19925;-58
2022/01/18 01:52:27;;;;;;;;;;;;;;;;;;5018311;28;19955;-56
2022/01/18 01:54:52;;;;;;;;;;;;;;;;;;5018575;28;19921;-58
2022/01/18 01:57:18;;;;;;;;;;;;;;;;;;5018892;28;20012;-55
2022/01/18 01:59:43;;;;;;;;;;;;;;;;;;5018798;28;19943;-58
2022/01/18 02:02:08;;;;;;;;;;;;;;;;;;5017597;28;19967;-58
2022/01/18 02:04:34;;;;;;;;;;;;;;;;;;5018283;28;20302;-58
2022/01/18 02:06:59;;;;;;;;;;;;;;;;;;5013532;28;19971;-57
2022/01/18 02:09:25;;;;;;;;;;;;;;;;;;5018434;28;19921;-58
2022/01/18 02:11:51;;;;;;;;;;;;;;;;;;5018976;28;19940;-55
2022/01/18 02:14:20;;;;;;;;;;;;;;;;;;5019473;28;19921;-57
2022/01/18 02:22:13;;;;;;;;;;;;;;;;;;5020803;28;19982;-58
2022/01/18 02:24:39;;;;;;;;;;;;;;;;;;5018282;28;19917;-58
2022/01/18 02:27:04;;;;;;;;;;;;;;;;;;5020692;28;20036;-57
2022/01/18 02:29:30;;;;;;;;;;;;;;;;;;5020692;28;20040;-56
2022/01/18 02:31:55;;;;;;;;;;;;;;;;;;5018641;28;19921;-58
2022/01/18 02:34:21;;;;;;;;;;;;;;;;;;5018628;28;19925;-56
2022/01/18 02:36:46;;;;;;;;;;;;;;;;;;5018518;28;19921;-58
2022/01/18 02:39:12;;;;;;;;;;;;;;;;;;5019361;28;19972;-57
2022/01/18 02:41:37;;;;;;;;;;;;;;;;;;5018538;28;19975;-58
2022/01/18 02:44:02;;;;;;;;;;;;;;;;;;5016872;28;19929;-57
2022/01/18 02:46:28;;;;;;;;;;;;;;;;;;5019087;28;19928;-59
2022/01/18 02:48:53;;;;;;;;;;;;;;;;;;5019132;28;20324;-58
2022/01/18 02:51:19;;;;;;;;;;;;;;;;;;5018015;28;20027;-58
2022/01/18 02:53:44;;;;;;;;;;;;;;;;;;5016418;28;19921;-58
2022/01/18 02:56:10;;;;;;;;;;;;;;;;;;5017816;28;20294;-58
2022/01/18 02:58:37;;;;;;;;;;;;;;;;;;5016046;28;19921;-58
2022/01/18 03:03:31;;;;;;;;;;;;;;;;;;5017999;28;19925;-57
2022/01/18 03:05:57;;;;;;;;;;;;;;;;;;5017478;28;19929;-57
2022/01/18 03:08:23;;;;;;;;;;;;;;;;;;5017364;28;19925;-59
2022/01/18 03:10:48;;;;;;;;;;;;;;;;;;5016831;28;20404;-59
2022/01/18 03:13:14;;;;;;;;;;;;;;;;;;5016158;28;20421;-57
2022/01/18 03:15:39;;;;;;;;;;;;;;;;;;5016781;28;20373;-58
2022/01/18 03:18:06;;;;;;;;;;;;;;;;;;5016184;28;19933;-58
2022/01/18 03:20:32;;;;;;;;;;;;;;;;;;5016639;28;19925;-55
2022/01/18 03:22:57;;;;;;;;;;;;;;;;;;5015754;28;19936;-58
2022/01/18 03:28:04;;;;;;;;;;;;;;;;;;5017338;28;19932;-58
2022/01/18 03:30:32;;;;;;;;;;;;;;;;;;5014598;28;21217;-58
2022/01/18 03:32:58;;;;;;;;;;;;;;;;;;5016806;28;19921;-58
2022/01/18 03:35:23;;;;;;;;;;;;;;;;;;5024758;28;20036;-58
2022/01/18 03:37:49;;;;;;;;;;;;;;;;;;5017820;28;19922;-58
2022/01/18 03:40:14;;;;;;;;;;;;;;;;;;5017192;28;19925;-59
2022/01/18 03:42:42;;;;;;;;;;;;;;;;;;5016882;28;19921;-58
2022/01/18 03:45:07;;;;;;;;;;;;;;;;;;5016783;28;19932;-59
2022/01/18 03:47:33;;;;;;;;;;;;;;;;;;5017507;28;21608;-58
2022/01/18 03:49:58;;;;;;;;;;;;;;;;;;5015371;28;19956;-57
2022/01/18 03:52:24;;;;;;;;;;;;;;;;;;5009678;28;20028;-56
2022/01/18 03:54:50;;;;;;;;;;;;;;;;;;5016932;28;19960;-56
2022/01/18 03:57:16;;;;;;;;;;;;;;;;;;5018537;28;19925;-58
2022/01/18 03:59:41;;;;;;;;;;;;;;;;;;5017388;28;19991;-57
2022/01/18 04:02:07;;;;;;;;;;;;;;;;;;5017453;28;20739;-57
2022/01/18 04:04:32;;;;;;;;;;;;;;;;;;5016719;28;19921;-58
2022/01/18 04:06:58;;;;;;;;;;;;;;;;;;5017319;28;19933;-57
2022/01/18 04:09:23;;;;;;;;;;;;;;;;;;5016421;28;19921;-59
2022/01/18 04:11:48;;;;;;;;;;;;;;;;;;5021943;28;19979;-58
2022/01/18 04:14:14;;;;;;;;;;;;;;;;;;5021592;28;19921;-59
2022/01/18 04:27:37;;;;;;;;;;;;;;;;;;5021848;28;20344;-57
2022/01/18 04:30:02;;;;;;;;;;;;;;;;;;5021871;28;19921;-57
2022/01/18 04:32:27;;;;;;;;;;;;;;;;;;5021204;28;19968;-57
2022/01/18 04:34:53;;;;;;;;;;;;;;;;;;5024119;28;20016;-57
2022/01/18 04:37:18;;;;;;;;;;;;;;;;;;5026135;28;19968;-56
2022/01/18 04:39:46;;;;;;;;;;;;;;;;;;5024931;28;19921;-57
2022/01/18 04:42:39;;;;;;;;;;;;;;;;;;5021204;28;19948;-58
2022/01/18 04:50:30;;;;;;;;;;;;;;;;;;5018992;28;19928;-57
2022/01/18 04:52:55;;;;;;;;;;;;;;;;;;5019284;28;19921;-56
2022/01/18 04:55:21;;;;;;;;;;;;;;;;;;5019188;28;19968;-54
2022/01/18 04:57:53;;;;;;;;;;;;;;;;;;5021232;28;19921;-57
2022/01/18 05:00:18;;;;;;;;;;;;;;;;;;5019975;28;19978;-57
2022/01/18 05:02:44;;;;;;;;;;;;;;;;;;5019465;28;20298;-57
2022/01/18 05:05:11;;;;;;;;;;;;;;;;;;5019189;28;19925;-54
2022/01/18 05:07:38;;;;;;;;;;;;;;;;;;5019028;28;19921;-57
2022/01/18 05:10:03;;;;;;;;;;;;;;;;;;5020438;28;20760;-56
2022/01/18 05:12:40;;;;;;;;;;;;;;;;;;5013157;28;19929;-55
2022/01/18 05:15:21;;;;;;;;;;;;;;;;;;5020818;28;20004;-57
2022/01/18 05:18:11;;;;;;;;;;;;;;;;;;5019197;28;19921;-57
2022/01/18 05:23:04;;;;;;;;;;;;;;;;;;5018213;28;19970;-57
2022/01/18 05:25:30;;;;;;;;;;;;;;;;;;5019723;28;19940;-57
2022/01/18 05:27:56;;;;;;;;;;;;;;;;;;5018770;28;20607;-55
2022/01/18 05:30:21;;;;;;;;;;;;;;;;;;5019684;28;19928;-57
2022/01/18 05:32:47;;;;;;;;;;;;;;;;;;5018045;28;19929;-55
2022/01/18 05:35:12;;;;;;;;;;;;;;;;;;5017884;28;19932;-58
2022/01/18 05:37:37;;;;;;;;;;;;;;;;;;5019137;28;19921;-55
2022/01/18 05:40:03;;;;;;;;;;;;;;;;;;5019793;28;19925;-57
2022/01/18 05:42:28;;;;;;;;;;;;;;;;;;5019227;28;19921;-58
2022/01/18 05:44:54;;;;;;;;;;;;;;;;;;5019552;28;20003;-58
2022/01/18 05:47:19;;;;;;;;;;;;;;;;;;5017257;28;20294;-58
2022/01/18 05:49:45;;;;;;;;;;;;;;;;;;5019265;28;20598;-58
2022/01/18 05:52:10;;;;;;;;;;;;;;;;;;5019762;28;20393;-58
2022/01/18 05:54:36;;;;;;;;;;;;;;;;;;5018353;28;21609;-56
2022/01/18 05:57:01;;;;;;;;;;;;;;;;;;5019037;28;19927;-58
2022/01/18 05:59:35;;;;;;;;;;;;;;;;;;5026311;28;20031;-57
2022/01/18 06:02:03;;;;;;;;;;;;;;;;;;5019510;28;20801;-55
2022/01/18 06:07:12;;;;;;;;;;;;;;;;;;5020501;28;19936;-55
2022/01/18 06:09:38;;;;;;;;;;;;;;;;;;5020613;28;20525;-58
2022/01/18 06:12:03;;;;;;;;;;;;;;;;;;5020508;28;20350;-57
2022/01/18 06:14:29;;;;;;;;;;;;;;;;;;5016884;28;20460;-58
2022/01/18 06:16:54;;;;;;;;;;;;;;;;;;5024414;28;20360;-57
2022/01/18 06:19:20;;;;;;;;;;;;;;;;;;5019265;28;19925;-57
2022/01/18 06:21:45;;;;;;;;;;;;;;;;;;5020860;28;19967;-54
2022/01/18 06:24:11;;;;;;;;;;;;;;;;;;5020829;28;19933;-59
2022/01/18 06:26:37;;;;;;;;;;;;;;;;;;5018583;28;20075;-54
2022/01/18 06:29:02;;;;;;;;;;;;;;;;;;5020181;28;19996;-57
2022/01/18 06:31:28;;;;;;;;;;;;;;;;;;5019442;28;20017;-57
2022/01/18 06:33:53;;;;;;;;;;;;;;;;;;5018156;28;19925;-57
2022/01/18 06:36:18;;;;;;;;;;;;;;;;;;5018736;28;19936;-55
2022/01/18 06:38:44;;;;;;;;;;;;;;;;;;5018639;28;20024;-57
2022/01/18 06:41:10;;;;;;;;;;;;;;;;;;5018253;28;20597;-58
2022/01/18 06:43:35;;;;;;;;;;;;;;;;;;5017179;28;19932;-56
2022/01/18 06:46:01;;;;;;;;;;;;;;;;;;5017921;28;19983;-56
2022/01/18 06:48:26;;;;;;;;;;;;;;;;;;5018038;28;19921;-57
2022/01/18 06:50:51;;;;;;;;;;;;;;;;;;5019366;28;19924;-56
2022/01/18 06:53:17;;;;;;;;;;;;;;;;;;5018622;28;19928;-57
2022/01/18 06:55:42;;;;;;;;;;;;;;;;;;5018447;28;19932;-58
2022/01/18 06:58:08;;;;;;;;;;;;;;;;;;5019356;28;19921;-55
2022/01/18 07:00:33;;;;;;;;;;;;;;;;;;5015873;28;19936;-56
2022/01/18 07:02:59;;;;;;;;;;;;;;;;;;5018057;28;19928;-58
2022/01/18 07:05:24;;;;;;;;;;;;;;;;;;5017607;28;20064;-55
2022/01/18 07:07:50;;;;;;;;;;;;;;;;;;5018342;28;19925;-57
2022/01/18 07:10:15;;;;;;;;;;;;;;;;;;5019015;28;20008;-58
2022/01/18 07:12:41;;;;;;;;;;;;;;;;;;5011487;28;19921;-58
2022/01/18 07:15:06;;;;;;;;;;;;;;;;;;5018854;28;19932;-57
2022/01/18 07:17:32;;;;;;;;;;;;;;;;;;5026986;28;19932;-57
2022/01/18 07:19:57;;;;;;;;;;;;;;;;;;5020069;28;19921;-58
2022/01/18 07:22:23;;;;;;;;;;;;;;;;;;5017624;28;19933;-57
2022/01/18 07:24:50;;;;;;;;;;;;;;;;;;5019931;28;19921;-58
2022/01/18 07:27:17;;;;;;;;;;;;;;;;;;5020760;28;19929;-54
2022/01/18 07:29:42;;;;;;;;;;;;;;;;;;5018839;28;19928;-56
2022/01/18 07:32:08;;;;;;;;;;;;;;;;;;5019121;28;19917;-57
2022/01/18 07:34:35;;;;;;;;;;;;;;;;;;5017278;28;20702;-58
2022/01/18 07:37:01;;;;;;;;;;;;;;;;;;5018933;28;19925;-58
2022/01/18 07:39:26;;;;;;;;;;;;;;;;;;5016737;28;19925;-56
2022/01/18 07:41:52;;;;;;;;;;;;;;;;;;5017724;28;19987;-57
2022/01/18 07:44:17;;;;;;;;;;;;;;;;;;5015513;28;19921;-57
2022/01/18 07:46:42;;;;;;;;;;;;;;;;;;5018044;28;19933;-60
2022/01/18 07:49:08;;;;;;;;;;;;;;;;;;5017886;28;20365;-58
2022/01/18 07:51:33;;;;;;;;;;;;;;;;;;5017573;28;19925;-57
2022/01/18 07:53:59;;;;;;;;;;;;;;;;;;5017621;28;20305;-55
2022/01/18 07:56:24;;;;;;;;;;;;;;;;;;5018092;28;19964;-58
2022/01/18 07:58:50;;;;;;;;;;;;;;;;;;5012957;28;19964;-58
2022/01/18 08:01:15;;;;;;;;;;;;;;;;;;5018652;28;19925;-58
2022/01/18 08:03:40;;;;;;;;;;;;;;;;;;5017731;28;19921;-57
2022/01/18 08:06:06;;;;;;;;;;;;;;;;;;5019885;28;20782;-58
2022/01/18 08:08:33;;;;;;;;;;;;;;;;;;5018956;28;19925;-58
2022/01/18 08:10:59;;;;;;;;;;;;;;;;;;5020225;28;19931;-58
2022/01/18 08:13:29;;;;;;;;;;;;;;;;;;5019793;28;19921;-59
2022/01/18 08:16:10;;;;;;;;;;;;;;;;;;5021129;28;19956;-55
2022/01/18 08:18:35;;;;;;;;;;;;;;;;;;5022319;28;19928;-57
2022/01/18 08:21:01;;;;;;;;;;;;;;;;;;5026466;28;20716;-58
2022/01/18 08:23:26;;;;;;;;;;;;;;;;;;5028637;28;19925;-58
2022/01/18 08:25:52;;;;;;;;;;;;;;;;;;5029362;28;19929;-57
2022/01/18 08:28:17;;;;;;;;;;;;;;;;;;5027604;28;20349;-58
2022/01/18 08:30:42;;;;;;;;;;;;;;;;;;5027741;28;19940;-59
2022/01/18 08:33:08;;;;;;;;;;;;;;;;;;5028383;28;19928;-58
2022/01/18 08:35:33;;;;;;;;;;;;;;;;;;5025200;28;19916;-58
2022/01/18 08:37:59;;;;;;;;;;;;;;;;;;5019231;28;20059;-58
2022/01/18 08:40:24;;;;;;;;;;;;;;;;;;5017521;28;20428;-56
2022/01/18 08:42:50;;;;;;;;;;;;;;;;;;5017897;28;19921;-58
2022/01/18 08:45:15;;;;;;;;;;;;;;;;;;5018478;28;19925;-58
2022/01/18 08:47:40;;;;;;;;;;;;;;;;;;5015509;28;19948;-58
2022/01/18 08:50:06;;;;;;;;;;;;;;;;;;5018104;28;19995;-57
2022/01/18 08:52:31;;;;;;;;;;;;;;;;;;5016502;28;19936;-57
2022/01/18 08:54:57;;;;;;;;;;;;;;;;;;5018539;28;19925;-56
2022/01/18 08:57:22;;;;;;;;;;;;;;;;;;5022195;28;20290;-57
2022/01/18 08:59:49;;;;;;;;;;;;;;;;;;5024522;28;21663;-57
2022/01/18 09:02:15;;;;;;;;;;;;;;;;;;5022737;28;20538;-54
2022/01/18 09:04:41;;;;;;;;;;;;;;;;;;5019886;28;19921;-57
2022/01/18 09:07:08;;;;;;;;;;;;;;;;;;5021191;28;19952;-56
2022/01/18 09:09:33;;;;;;;;;;;;;;;;;;5019762;28;19921;-57
2022/01/18 09:11:59;;;;;;;;;;;;;;;;;;5019801;28;19917;-56
2022/01/18 09:14:24;;;;;;;;;;;;;;;;;;5019424;28;19924;-56
2022/01/18 09:16:50;;;;;;;;;;;;;;;;;;5020465;28;19986;-56
2022/01/18 09:19:16;;;;;;;;;;;;;;;;;;5019419;28;19921;-57
2022/01/18 09:21:43;;;;;;;;;;;;;;;;;;5019961;28;19925;-57
2022/01/18 09:24:08;;;;;;;;;;;;;;;;;;5020022;28;19933;-57
2022/01/18 09:26:33;;;;;;;;;;;;;;;;;;5029114;28;19936;-54
2022/01/18 09:28:59;;;;;;;;;;;;;;;;;;5022753;28;19929;-58
2022/01/18 09:31:25;;;;;;;;;;;;;;;;;;5028234;28;19929;-57
2022/01/18 09:33:50;;;;;;;;;;;;;;;;;;5019223;28;20366;-56
2022/01/18 09:36:15;;;;;;;;;;;;;;;;;;5019046;28;20420;-57
2022/01/18 09:38:41;;;;;;;;;;;;;;;;;;5018321;28;19932;-55
2022/01/18 09:41:11;;;;;;;;;;;;;;;;;;5020919;28;19943;-57
2022/01/18 09:43:37;;;;;;;;;;;;;;;;;;5020104;28;19931;-56
2022/01/18 09:46:03;;;;;;;;;;;;;;;;;;5020431;28;19933;-56
2022/01/18 09:48:28;;;;;;;;;;;;;;;;;;5018479;28;19928;-55
2022/01/18 09:50:55;;;;;;;;;;;;;;;;;;5012225;28;19948;-57
2022/01/18 09:53:20;;;;;;;;;;;;;;;;;;5019186;28;19956;-56
2022/01/18 09:55:48;;;;;;;;;;;;;;;;;;5019716;28;19964;-54
2022/01/18 09:58:14;;;;;;;;;;;;;;;;;;5019766;28;19968;-53
2022/01/18 10:00:40;;;;;;;;;;;;;;;;;;5019665;28;19933;-55
2022/01/18 10:03:09;;;;;;;;;;;;;;;;;;5019460;28;19923;-54
2022/01/18 10:05:34;;;;;;;;;;;;;;;;;;5019305;28;19940;-56
2022/01/18 10:08:00;;;;;;;;;;;;;;;;;;5020905;28;19921;-52
2022/01/18 10:10:25;;;;;;;;;;;;;;;;;;5021991;28;19936;-54
2022/01/18 10:12:51;;;;;;;;;;;;;;;;;;5022232;28;19928;-54
2022/01/18 10:15:16;;;;;;;;;;;;;;;;;;5022076;28;19929;-56
2022/01/18 10:17:41;;;;;;;;;;;;;;;;;;5022605;28;19928;-56
2022/01/18 10:20:07;;;;;;;;;;;;;;;;;;5007806;28;19945;-56
2022/01/18 10:22:40;;;;;;;;;;;;;;;;;;5002242;28;20298;-56
2022/01/18 10:25:06;;;;;;;;;;;;;;;;;;5001363;28;20068;-56
2022/01/18 10:27:31;;;;;;;;;;;;;;;;;;5001206;28;19947;-56
2022/01/18 10:29:57;;;;;;;;;;;;;;;;;;5001170;28;19953;-55
2022/01/18 10:32:31;;;;;;;;;;;;;;;;;;4999536;28;19960;-56
2022/01/18 10:37:22;;;;;;;;;;;;;;;;;;5001183;28;19964;-56
2022/01/18 10:39:47;;;;;;;;;;;;;;;;;;5000456;28;19926;-56
2022/01/18 10:42:13;;;;;;;;;;;;;;;;;;4999927;28;19917;-57
2022/01/18 10:44:39;;;;;;;;;;;;;;;;;;4999859;28;19937;-54
2022/01/18 10:47:04;;;;;;;;;;;;;;;;;;4999795;28;19930;-56
2022/01/18 10:49:30;;;;;;;;;;;;;;;;;;4997174;28;19929;-56
2022/01/18 10:51:55;;;;;;;;;;;;;;;;;;4998664;28;20440;-57
2022/01/18 10:54:20;;;;;;;;;;;;;;;;;;5000140;28;19930;-57
2022/01/18 10:56:48;;;;;;;;;;;;;;;;;;4999515;28;19926;-57
2022/01/18 10:59:14;;;;;;;;;;;;;;;;;;4999426;28;20037;-57
2022/01/18 11:01:39;;;;;;;;;;;;;;;;;;4997070;28;19964;-55
2022/01/18 11:04:05;;;;;;;;;;;;;;;;;;4991663;28;19921;-56
2022/01/18 11:06:30;;;;;;;;;;;;;;;;;;4998874;28;20048;-56
2022/01/18 11:08:56;;;;;;;;;;;;;;;;;;5000015;28;20390;-57
2022/01/18 11:11:21;;;;;;;;;;;;;;;;;;4997681;28;20516;-59
2022/01/18 11:13:46;;;;;;;;;;;;;;;;;;4999516;28;19925;-52
2022/01/18 11:16:15;;;;;;;;;;;;;;;;;;5000331;28;19928;-57
2022/01/18 11:18:45;;;;;;;;;;;;;;;;;;5000947;28;19940;-55
2022/01/18 11:21:11;;;;;;;;;;;;;;;;;;5004392;28;19929;-55
2022/01/18 11:23:37;;;;;;;;;;;;;;;;;;4996459;28;20023;-54
2022/01/18 11:26:02;;;;;;;;;;;;;;;;;;4999922;28;19928;-53
2022/01/18 11:28:29;;;;;;;;;;;;;;;;;;4998911;28;20012;-54
2022/01/18 11:30:55;;;;;;;;;;;;;;;;;;4998993;28;19921;-55
2022/01/18 11:33:20;;;;;;;;;;;;;;;;;;4998350;28;19933;-56
2022/01/18 11:35:46;;;;;;;;;;;;;;;;;;5001774;28;20488;-57
2022/01/18 11:38:12;;;;;;;;;;;;;;;;;;4998774;28;19964;-55
2022/01/18 11:40:37;;;;;;;;;;;;;;;;;;4997541;28;20298;-56
2022/01/18 11:43:02;;;;;;;;;;;;;;;;;;4998460;28;19993;-56
2022/01/18 11:45:28;;;;;;;;;;;;;;;;;;4996770;28;20055;-57
2022/01/18 11:47:53;;;;;;;;;;;;;;;;;;4997432;28;20020;-56
2022/01/18 11:50:20;;;;;;;;;;;;;;;;;;4997856;28;19921;-56
2022/01/18 11:52:47;;;;;;;;;;;;;;;;;;4997898;28;20359;-57
2022/01/18 11:55:13;;;;;;;;;;;;;;;;;;4998779;28;19926;-56
2022/01/18 11:57:38;;;;;;;;;;;;;;;;;;4997759;28;19987;-56
2022/01/18 12:00:04;;;;;;;;;;;;;;;;;;4997562;28;20357;-56
2022/01/18 12:02:30;;;;;;;;;;;;;;;;;;4996732;28;19922;-54
2022/01/18 12:04:57;;;;;;;;;;;;;;;;;;4998848;28;19926;-57
2022/01/18 12:07:23;;;;;;;;;;;;;;;;;;4998602;28;20004;-57
2022/01/18 12:09:48;;;;;;;;;;;;;;;;;;5006297;28;20462;-55
2022/01/18 12:12:14;;;;;;;;;;;;;;;;;;4990173;28;19922;-56
2022/01/18 12:14:43;;;;;;;;;;;;;;;;;;4997902;28;19971;-56
2022/01/18 12:17:08;;;;;;;;;;;;;;;;;;4994573;28;20021;-55
2022/01/18 12:19:34;;;;;;;;;;;;;;;;;;5023305;28;19928;-56
2022/01/18 12:21:59;;;;;;;;;;;;;;;;;;5017331;28;20289;-55
2022/01/18 12:24:25;;;;;;;;;;;;;;;;;;5016455;28;19925;-56
2022/01/18 12:26:59;;;;;;;;;;;;;;;;;;5015171;28;20799;-55
2022/01/18 12:32:07;;;;;;;;;;;;;;;;;;5020374;28;19925;-56
2022/01/18 12:34:33;;;;;;;;;;;;;;;;;;5020630;28;19927;-55
2022/01/18 12:36:58;;;;;;;;;;;;;;;;;;5020333;28;19929;-52
2022/01/18 12:39:23;;;;;;;;;;;;;;;;;;5020306;28;19925;-56
2022/01/18 12:41:53;;;;;;;;;;;;;;;;;;5020767;28;19921;-52
2022/01/18 12:44:22;;;;;;;;;;;;;;;;;;5020655;28;19924;-55
2022/01/18 12:46:47;;;;;;;;;;;;;;;;;;5019429;28;19932;-53
2022/01/18 12:49:12;;;;;;;;;;;;;;;;;;5020176;28;19925;-55
2022/01/18 12:51:38;;;;;;;;;;;;;;;;;;5020071;28;19921;-55
2022/01/18 12:54:03;;;;;;;;;;;;;;;;;;5021636;28;20028;-56
2022/01/18 12:56:29;;;;;;;;;;;;;;;;;;5019018;28;19929;-55
2022/01/18 12:58:55;;;;;;;;;;;;;;;;;;5020841;28;20561;-55
2022/01/18 13:01:24;;;;;;;;;;;;;;;;;;5020291;28;20032;-56
2022/01/18 13:03:49;;;;;;;;;;;;;;;;;;5020734;28;19925;-56
2022/01/18 13:06:15;;;;;;;;;;;;;;;;;;5019893;28;19921;-56
2022/01/18 13:08:40;;;;;;;;;;;;;;;;;;5029514;28;20337;-56
2022/01/18 13:11:05;;;;;;;;;;;;;;;;;;5020651;28;19921;-57
2022/01/18 13:13:31;;;;;;;;;;;;;;;;;;5015237;28;20282;-57
2022/01/18 13:23:58;;;;;;;;;;;;;;;;;;5017258;28;19983;-57
2022/01/18 13:26:24;;;;;;;;;;;;;;;;;;5016050;28;19936;-54
2022/01/18 13:28:49;;;;;;;;;;;;;;;;;;5020909;28;19940;-56
2022/01/18 13:31:15;;;;;;;;;;;;;;;;;;5020027;28;19921;-55
2022/01/18 13:33:40;;;;;;;;;;;;;;;;;;5020168;28;19960;-57
2022/01/18 13:36:06;;;;;;;;;;;;;;;;;;5019135;28;19937;-53
2022/01/18 13:38:31;;;;;;;;;;;;;;;;;;5018693;28;19940;-52
2022/01/18 13:40:57;;;;;;;;;;;;;;;;;;5020780;28;20008;-56
2022/01/18 13:43:22;;;;;;;;;;;;;;;;;;5019301;28;19917;-56
2022/01/18 13:45:48;;;;;;;;;;;;;;;;;;5020515;28;20480;-56
2022/01/18 13:48:14;;;;;;;;;;;;;;;;;;5021500;28;19983;-54
2022/01/18 13:50:40;;;;;;;;;;;;;;;;;;5020407;28;20038;-53
2022/01/18 13:53:06;;;;;;;;;;;;;;;;;;5021313;28;20063;-55
2022/01/18 13:55:32;;;;;;;;;;;;;;;;;;5019178;28;19931;-56
2022/01/18 13:57:58;;;;;;;;;;;;;;;;;;5029360;28;19932;-55
2022/01/18 14:00:23;;;;;;;;;;;;;;;;;;5020755;28;19921;-54
2022/01/18 14:02:48;;;;;;;;;;;;;;;;;;5020205;28;19925;-52
2022/01/18 14:05:14;;;;;;;;;;;;;;;;;;5020852;28;20473;-54
2022/01/18 14:07:40;;;;;;;;;;;;;;;;;;5020732;28;20271;-56
2022/01/18 14:10:05;;;;;;;;;;;;;;;;;;5023159;28;20036;-53
2022/01/18 14:12:31;;;;;;;;;;;;;;;;;;5016976;28;19956;-55
2022/01/18 14:14:56;;;;;;;;;;;;;;;;;;5023628;28;19971;-56
2022/01/18 14:17:22;;;;;;;;;;;;;;;;;;5027559;28;19940;-55
2022/01/18 14:19:47;;;;;;;;;;;;;;;;;;5031211;28;20003;-55
2022/01/18 14:22:13;;;;;;;;;;;;;;;;;;5030724;28;19917;-55
2022/01/18 14:24:41;;;;;;;;;;;;;;;;;;5031985;28;20374;-56
2022/01/18 14:27:07;;;;;;;;;;;;;;;;;;5030145;28;19921;-54
2022/01/18 14:29:32;;;;;;;;;;;;;;;;;;5028133;28;19944;-55
2022/01/18 14:31:57;;;;;;;;;;;;;;;;;;5025470;28;19921;-55
2022/01/18 14:34:23;;;;;;;;;;;;;;;;;;5021016;28;20017;-54
2022/01/18 14:36:49;;;;;;;;;;;;;;;;;;5020020;28;20075;-55
2022/01/18 14:39:14;;;;;;;;;;;;;;;;;;5028675;28;20330;-56
2022/01/18 14:41:39;;;;;;;;;;;;;;;;;;5019591;28;19921;-52
2022/01/18 14:44:13;;;;;;;;;;;;;;;;;;5020935;28;19921;-56
2022/01/18 14:47:39;;;;;;;;;;;;;;;;;;5018873;28;19921;-56
2022/01/18 14:49:33;;;;;;;;;;;;;;;;;;5015480;28;19926;-55
2022/01/18 14:51:59;;;;;;;;;;;;;;;;;;5018075;28;20415;-55
2022/01/18 14:54:28;;;;;;;;;;;;;;;;;;5017324;28;20398;-53
2022/01/18 14:56:53;;;;;;;;;;;;;;;;;;5017358;28;19972;-54
2022/01/18 14:59:24;;;;;;;;;;;;;;;;;;5017210;28;20004;-55
2022/01/18 15:01:51;;;;;;;;;;;;;;;;;;5018809;28;19925;-53
2022/01/18 15:04:17;;;;;;;;;;;;;;;;;;5019917;28;19957;-56
2022/01/18 15:06:42;;;;;;;;;;;;;;;;;;5018823;28;19972;-54
2022/01/18 15:09:07;;;;;;;;;;;;;;;;;;5017006;28;19928;-54
2022/01/18 15:11:36;;;;;;;;;;;;;;;;;;5017217;28;19928;-56
2022/01/18 15:14:02;;;;;;;;;;;;;;;;;;5015859;28;20002;-53
2022/01/18 15:16:27;;;;;;;;;;;;;;;;;;5016797;28;20235;-53
2022/01/18 15:18:53;;;;;;;;;;;;;;;;;;5018472;28;20297;-54
2022/01/18 15:21:18;;;;;;;;;;;;;;;;;;5017101;28;19983;-53
2022/01/18 15:23:44;;;;;;;;;;;;;;;;;;5018081;28;19933;-52
2022/01/18 15:26:11;;;;;;;;;;;;;;;;;;5017613;28;19921;-53
2022/01/18 15:28:37;;;;;;;;;;;;;;;;;;5018037;28;19925;-54
2022/01/18 15:31:03;;;;;;;;;;;;;;;;;;5018358;28;19929;-55
2022/01/18 15:33:29;;;;;;;;;;;;;;;;;;5017690;28;20115;-52
2022/01/18 15:35:54;;;;;;;;;;;;;;;;;;5017354;28;19937;-55
2022/01/18 15:38:20;;;;;;;;;;;;;;;;;;5017203;28;19921;-57
2022/01/18 15:40:46;;;;;;;;;;;;;;;;;;5018790;28;20012;-53
2022/01/18 15:43:11;;;;;;;;;;;;;;;;;;5017846;28;19925;-54
2022/01/18 15:45:37;;;;;;;;;;;;;;;;;;5018348;28;19925;-54
2022/01/18 15:48:02;;;;;;;;;;;;;;;;;;5017577;28;19936;-54
2022/01/18 15:50:28;;;;;;;;;;;;;;;;;;5017701;28;19925;-54
2022/01/18 15:52:53;;;;;;;;;;;;;;;;;;5017794;28;19921;-56
2022/01/18 15:55:18;;;;;;;;;;;;;;;;;;5015675;28;20374;-54
2022/01/18 15:57:44;;;;;;;;;;;;;;;;;;5018052;28;20325;-52
2022/01/18 16:00:09;;;;;;;;;;;;;;;;;;5019201;28;19936;-54
2022/01/18 16:02:35;;;;;;;;;;;;;;;;;;5017379;28;19925;-53
2022/01/18 16:05:00;;;;;;;;;;;;;;;;;;5018818;28;19979;-55
2022/01/18 16:07:26;;;;;;;;;;;;;;;;;;5014184;28;20325;-56
2022/01/18 16:09:51;;;;;;;;;;;;;;;;;;5021922;28;19921;-55
2022/01/18 16:12:17;;;;;;;;;;;;;;;;;;5023049;28;19940;-55
2022/01/18 16:14:42;;;;;;;;;;;;;;;;;;5020583;28;20432;-55
2022/01/18 16:17:07;;;;;;;;;;;;;;;;;;5022451;28;19939;-56
2022/01/18 16:19:33;;;;;;;;;;;;;;;;;;5020809;28;19956;-55
2022/01/18 16:21:58;;;;;;;;;;;;;;;;;;5021573;28;19925;-56
2022/01/18 16:24:24;;;;;;;;;;;;;;;;;;5021075;28;20001;-55
2022/01/18 16:26:51;;;;;;;;;;;;;;;;;;5021909;28;20666;-54
2022/01/18 16:29:17;;;;;;;;;;;;;;;;;;5022652;28;19921;-56
2022/01/18 16:31:43;;;;;;;;;;;;;;;;;;5022293;28;19972;-55
2022/01/18 16:34:08;;;;;;;;;;;;;;;;;;5021360;28;19928;-55
2022/01/18 16:36:34;;;;;;;;;;;;;;;;;;5020374;28;19937;-54
2022/01/18 16:38:59;;;;;;;;;;;;;;;;;;5001720;28;19933;-55
2022/01/18 16:41:25;;;;;;;;;;;;;;;;;;4994765;28;19938;-55
2022/01/18 16:43:50;;;;;;;;;;;;;;;;;;5001974;28;19932;-54
2022/01/18 16:46:16;;;;;;;;;;;;;;;;;;5000804;28;20004;-55
2022/01/18 16:48:42;;;;;;;;;;;;;;;;;;5000890;28;19928;-56
2022/01/18 16:51:07;;;;;;;;;;;;;;;;;;5023381;28;19932;-56
2022/01/18 16:53:34;;;;;;;;;;;;;;;;;;5019646;28;19917;-55
2022/01/18 16:55:59;;;;;;;;;;;;;;;;;;5019847;28;20386;-55
2022/01/18 16:58:24;;;;;;;;;;;;;;;;;;5011696;28;20020;-52
2022/01/18 17:00:50;;;;;;;;;;;;;;;;;;5021519;28;19928;-54
2022/01/18 17:03:15;;;;;;;;;;;;;;;;;;5020987;28;19932;-53
2022/01/18 17:05:43;;;;;;;;;;;;;;;;;;5020603;28;19928;-54
2022/01/18 17:08:08;;;;;;;;;;;;;;;;;;5021099;28;19925;-53
2022/01/18 17:10:34;;;;;;;;;;;;;;;;;;5020463;28;19940;-55
2022/01/18 17:12:59;;;;;;;;;;;;;;;;;;5021652;28;19928;-53
2022/01/18 17:15:25;;;;;;;;;;;;;;;;;;5020573;28;19925;-55
2022/01/18 17:17:50;;;;;;;;;;;;;;;;;;5021371;28;20389;-53
2022/01/18 17:20:16;;;;;;;;;;;;;;;;;;5020024;28;19917;-52
2022/01/18 17:22:41;;;;;;;;;;;;;;;;;;5015494;28;19976;-53
2022/01/18 17:25:07;;;;;;;;;;;;;;;;;;5020582;28;19917;-53
2022/01/18 17:27:32;;;;;;;;;;;;;;;;;;5019258;28;20281;-55
2022/01/18 17:29:58;;;;;;;;;;;;;;;;;;5020159;28;19944;-56
2022/01/18 17:32:25;;;;;;;;;;;;;;;;;;5020642;28;21326;-53
2022/01/18 17:34:50;;;;;;;;;;;;;;;;;;5021022;28;19960;-56
2022/01/18 17:37:16;;;;;;;;;;;;;;;;;;5021643;28;20011;-55
2022/01/18 17:39:41;;;;;;;;;;;;;;;;;;5017216;28;20475;-54
2022/01/18 17:42:07;;;;;;;;;;;;;;;;;;5047036;28;19963;-55
2022/01/18 17:44:32;;;;;;;;;;;;;;;;;;5019788;28;19921;-53
2022/01/18 17:46:58;;;;;;;;;;;;;;;;;;5020097;28;19983;-53
2022/01/18 17:49:23;;;;;;;;;;;;;;;;;;5020804;28;19921;-55
2022/01/18 17:51:49;;;;;;;;;;;;;;;;;;5020834;28;19925;-55
2022/01/18 17:54:14;;;;;;;;;;;;;;;;;;5019623;28;19921;-52
2022/01/18 18:02:11;;;;;;;;;;;;;;;;;;5013285;28;20305;-54